Buoy 13526

sailwx.info

Track history (hours):
 
Tides and Currents Weather Stations Pressure Air Temp Water Temp Dewpoint Dewpoint Depression Visibility Wind Speed Wind Dir Waves Ship Positions

Drifting buoy 13526

Last reported at 2014-Jul-23 18:05 UTC. Time now 2014-Jul-23 19:45 UTC.
Position N 25°31' W 035°13'.

Water temperature 26.0 ° C

Date/timePositionNaut miles runAvg speedWind from/ knotsBaromVisibWave heightAir tempDewpointWater temp
2014-Jul-23 18:05N 25°31' W 035°13'0 0.7 26.0
2014-Jul-23 17:36N 25°31' W 035°12'0 0.1 26.1
2014-Jul-23 16:47N 25°31' W 035°12'0 1.0 26.0
2014-Jul-23 16:42N 25°31' W 035°12'1 0.6 26.0
2014-Jul-23 15:05N 25°31' W 035°13'1 0.3 26.0
2014-Jul-23 13:10N 25°32' W 035°14'0 2.3 25.9
2014-Jul-23 13:00N 25°32' W 035°14'0 0.1 25.9
2014-Jul-23 12:24N 25°32' W 035°14'1 5.4 25.8
2014-Jul-23 12:18N 25°32' W 035°15'0 0.0 25.8
2014-Jul-23 12:15N 25°32' W 035°15'0 0.0 25.8
2014-Jul-23 11:25N 25°32' W 035°15'111.1 25.8
2014-Jul-23 11:22N 25°32' W 035°15'1 0.8 25.8
2014-Jul-23 10:36N 25°32' W 035°15'0 0.0 25.7
2014-Jul-23 09:46N 25°32' W 035°15'1 0.6 25.7
2014-Jul-23 08:24N 25°32' W 035°16'1 2.2 25.7
2014-Jul-23 08:10N 25°32' W 035°15'0 0.2 25.7
2014-Jul-23 07:51N 25°32' W 035°15'0 0.4 25.7
2014-Jul-23 06:50N 25°32' W 035°15'0 1.2 25.8
2014-Jul-23 06:42N 25°32' W 035°15'0 0.0 25.8
2014-Jul-23 06:26N 25°32' W 035°15'0 0.0 25.8
2014-Jul-23 06:16N 25°32' W 035°15'0 0.5 25.8
2014-Jul-23 06:10N 25°32' W 035°16'0 4.5 25.8
2014-Jul-23 06:07N 25°32' W 035°16'0 0.0 25.8
2014-Jul-23 05:23N 25°32' W 035°16'0 0.2 25.8
2014-Jul-23 03:42N 25°32' W 035°16'1 7.8 25.8
2014-Jul-23 03:37N 25°32' W 035°15'0 0.1 25.8
2014-Jul-23 00:45N 25°31' W 035°15'1 1.0 25.8
2014-Jul-22 23:56N 25°32' W 035°16'0 0.0 25.9
2014-Jul-22 23:55N 25°32' W 035°16'1 1.7 25.9
2014-Jul-22 23:06N 25°32' W 035°15'0 1.6 25.9
2014-Jul-22 22:59N 25°31' W 035°15'123.8 25.9
2014-Jul-22 22:56N 25°32' W 035°15'0 0.6 25.9
2014-Jul-22 22:09N 25°32' W 035°15'0 0.1
2014-Jul-22 20:57N 25°32' W 035°16'1 0.5 26.0
2014-Jul-22 19:28N 25°33' W 035°16'0 0.0 26.1
2014-Jul-22 19:11N 25°33' W 035°16'0 0.0
2014-Jul-22 18:30N 25°33' W 035°16'0 0.0 26.2
2014-Jul-22 18:26N 25°33' W 035°16'0 0.2 26.2
2014-Jul-22 17:48N 25°33' W 035°16'0 0.2 26.2
2014-Jul-22 16:56N 25°33' W 035°15'1 0.5 26.2
2014-Jul-22 15:10N 25°33' W 035°16'1 0.3 26.2
2014-Jul-22 12:45N 25°34' W 035°16'1 5.4 25.9
2014-Jul-22 12:37N 25°34' W 035°17'0 0.0 25.9
2014-Jul-22 11:48N 25°34' W 035°17'0 0.0 25.8
2014-Jul-22 11:40N 25°34' W 035°17'0 0.4 25.8
2014-Jul-22 11:02N 25°35' W 035°17'0 0.0 25.8
2014-Jul-22 08:53N 25°35' W 035°17'1 1.3 25.8
2014-Jul-22 08:04N 25°35' W 035°16'220.2 25.8
2014-Jul-22 07:59N 25°35' W 035°18'1 0.7 25.8
2014-Jul-22 07:10N 25°35' W 035°18'1 3.3 25.7
2014-Jul-22 06:56N 25°36' W 035°18'1 1.8 25.8
2014-Jul-22 06:27N 25°35' W 035°18'0 0.0 25.8
2014-Jul-22 06:24N 25°35' W 035°18'0 2.4 25.8
2014-Jul-22 06:18N 25°35' W 035°18'0 0.2 25.8
2014-Jul-22 05:32N 25°35' W 035°18'0 0.2 25.8
2014-Jul-22 03:57N 25°35' W 035°18'0 0.0 25.9
2014-Jul-22 03:54N 25°35' W 035°18'111.7 25.9
2014-Jul-22 03:49N 25°34' W 035°19'0 0.0 25.9
2014-Jul-22 01:04N 25°34' W 035°19'116.3 26.0
2014-Jul-22 01:01N 25°35' W 035°18'0 0.4 26.0
2014-Jul-22 00:18N 25°35' W 035°18'0 0.1 26.0
2014-Jul-21 23:26N 25°35' W 035°18'0 1.7 26.0
2014-Jul-21 23:20N 25°35' W 035°18'0 0.3 26.0
2014-Jul-21 22:38N 25°35' W 035°19'0 2.8 26.0
2014-Jul-21 22:32N 25°35' W 035°18'0 0.0 26.0
2014-Jul-21 22:29N 25°35' W 035°18'0 0.0 26.0
2014-Jul-21 21:40N 25°35' W 035°18'0 0.0 26.1
2014-Jul-21 21:26N 25°35' W 035°18'1 0.8 26.1
2014-Jul-21 20:34N 25°36' W 035°18'0 0.5 26.2
2014-Jul-21 19:53N 25°36' W 035°19'0 1.1 26.4
2014-Jul-21 19:39N 25°36' W 035°19'0 0.0 26.3
2014-Jul-21 18:54N 25°36' W 035°19'0 0.5 26.4
2014-Jul-21 17:59N 25°36' W 035°19'0 2.5 26.6
2014-Jul-21 17:56N 25°36' W 035°19'0 0.6 26.6
2014-Jul-21 17:07N 25°36' W 035°19'0 0.0 26.5
2014-Jul-21 16:12N 25°36' W 035°19'0 0.1
2014-Jul-21 15:26N 25°36' W 035°19'1 0.3 26.2
2014-Jul-21 13:48N 25°37' W 035°19'0 0.0 25.9
2014-Jul-21 13:05N 25°37' W 035°19'0 2.1 25.8
2014-Jul-21 12:57N 25°37' W 035°19'0 0.4 25.7
2014-Jul-21 12:11N 25°37' W 035°20'0 6.6 25.7
2014-Jul-21 12:08N 25°37' W 035°19'0 4.2
2014-Jul-21 12:02N 25°38' W 035°19'0 0.0 25.7
2014-Jul-21 11:22N 25°38' W 035°19'1 6.4 25.7
2014-Jul-21 11:16N 25°38' W 035°19'0 0.4 25.7
2014-Jul-21 10:27N 25°38' W 035°20'0 0.0 25.6
2014-Jul-21 10:24N 25°38' W 035°20'1 0.7 25.6
2014-Jul-21 09:16N 25°38' W 035°20'1 8.1 25.5
2014-Jul-21 09:10N 25°38' W 035°20'0 0.4 25.5
2014-Jul-21 08:10N 25°38' W 035°20'0 0.0 25.5
2014-Jul-21 07:38N 25°38' W 035°20'114.1 25.5
2014-Jul-21 07:35N 25°38' W 035°21'0 9.7 25.5
2014-Jul-21 07:32N 25°38' W 035°20'0 0.5 25.5
2014-Jul-21 06:35N 25°38' W 035°21'114.0 25.5
2014-Jul-21 06:29N 25°40' W 035°21'0 0.0 25.5
2014-Jul-21 05:57N 25°40' W 035°21'1 4.3 25.6
2014-Jul-21 05:42N 25°39' W 035°20'0 0.0 25.6
2014-Jul-21 05:38N 25°39' W 035°20'0 0.0 25.6
2014-Jul-21 04:08N 25°39' W 035°20'110.0 25.7
2014-Jul-21 04:03N 25°39' W 035°21'0 0.0 25.7
2014-Jul-21 04:00N 25°39' W 035°21'0 0.0 25.7
2014-Jul-21 01:24N 25°39' W 035°21'0 0.0 25.7
2014-Jul-21 01:21N 25°39' W 035°21'1 0.9 25.7
2014-Jul-21 00:36N 25°39' W 035°22'1 0.4 25.7
2014-Jul-20 22:57N 25°39' W 035°22'0 1.2 25.8
2014-Jul-20 22:54N 25°39' W 035°22'1 0.6 25.8
2014-Jul-20 21:57N 25°40' W 035°22'1 1.0 25.9
2014-Jul-20 20:57N 25°39' W 035°23'0 0.0 26.0
2014-Jul-20 20:14N 25°39' W 035°23'1 1.7 26.0
2014-Jul-20 19:48N 25°40' W 035°23'0 0.0 26.0
2014-Jul-20 19:21N 25°40' W 035°23'0 0.0 26.2
2014-Jul-20 19:11N 25°40' W 035°23'0 0.0
2014-Jul-20 18:10N 25°40' W 035°23'1 1.1 26.3
2014-Jul-20 17:35N 25°40' W 035°22'0 0.9 26.3
2014-Jul-20 17:18N 25°40' W 035°23'0 5.4 26.4
2014-Jul-20 17:15N 25°40' W 035°23'0 0.0 26.4
2014-Jul-20 16:27N 25°40' W 035°23'0 0.1 26.3
2014-Jul-20 15:38N 25°40' W 035°23'0 0.3 26.1
2014-Jul-20 14:08N 25°40' W 035°23'0 0.1 25.8
2014-Jul-20 13:20N 25°40' W 035°23'1 0.9 25.8
2014-Jul-20 12:27N 25°40' W 035°23'0 4.5 25.8
2014-Jul-20 12:22N 25°41' W 035°23'0 0.1 25.8
2014-Jul-20 11:42N 25°40' W 035°23'1 6.9 25.7
2014-Jul-20 11:36N 25°41' W 035°23'0 0.6 25.7
2014-Jul-20 10:48N 25°41' W 035°24'1 5.1 25.7
2014-Jul-20 10:41N 25°41' W 035°23'0 0.2
2014-Jul-20 09:42N 25°41' W 035°23'012.6 25.7
2014-Jul-20 09:41N 25°41' W 035°23'0 6.3 25.7
2014-Jul-20 09:39N 25°41' W 035°23'1 0.7 25.7
2014-Jul-20 08:27N 25°42' W 035°23'0 0.0 25.7
2014-Jul-20 08:01N 25°42' W 035°23'110.9 25.7
2014-Jul-20 07:57N 25°41' W 035°23'1 0.7 25.7
2014-Jul-20 06:48N 25°42' W 035°23'0 2.2 25.7
2014-Jul-20 06:40N 25°42' W 035°23'0 0.0 25.7
2014-Jul-20 06:22N 25°42' W 035°23'1 1.2 25.7
2014-Jul-20 05:52N 25°42' W 035°24'0 0.0 25.7
2014-Jul-20 05:49N 25°42' W 035°24'2 1.0 25.7
2014-Jul-20 04:10N 25°43' W 035°25'0 0.0 25.8
2014-Jul-20 04:08N 25°43' W 035°25'0 0.1 25.8
2014-Jul-20 00:57N 25°44' W 035°25'0 0.0
2014-Jul-20 00:55N 25°44' W 035°25'0 0.1 25.8
2014-Jul-20 00:07N 25°44' W 035°25'0 0.4 25.9
2014-Jul-19 23:20N 25°44' W 035°25'0 1.6 25.9
2014-Jul-19 23:11N 25°44' W 035°25'0 0.0
2014-Jul-19 23:09N 25°44' W 035°25'0 0.0 26.0
2014-Jul-19 22:29N 25°44' W 035°25'110.5 26.0
2014-Jul-19 22:23N 25°44' W 035°27'0 0.0 26.0
2014-Jul-19 22:17N 25°44' W 035°27'0 0.1 26.0
2014-Jul-19 20:01N 25°44' W 035°26'1 3.4 26.2
2014-Jul-19 19:45N 25°44' W 035°27'1 1.9 26.3
2014-Jul-19 19:10N 25°43' W 035°27'122.0 26.1
2014-Jul-19 19:07N 25°44' W 035°27'0 0.0 26.1
2014-Jul-19 18:22N 25°44' W 035°27'1 2.2 26.2
2014-Jul-19 18:01N 25°43' W 035°27'0 0.9 26.3
2014-Jul-19 17:29N 25°44' W 035°27'0 1.2 26.7
2014-Jul-19 17:26N 25°44' W 035°27'0 0.4 26.7
2014-Jul-19 16:38N 25°44' W 035°27'0 0.2 26.5
2014-Jul-19 15:51N 25°44' W 035°27'0 0.1 26.2
2014-Jul-19 13:42N 25°44' W 035°27'0 0.0
2014-Jul-19 12:47N 25°44' W 035°27'1 7.3 25.7
2014-Jul-19 12:42N 25°44' W 035°27'0 0.0
2014-Jul-19 12:07N 25°44' W 035°27'0 1.2 25.5
2014-Jul-19 12:04N 25°44' W 035°27'0 7.4 25.5
2014-Jul-19 12:01N 25°44' W 035°28'0 5.3 25.5
2014-Jul-19 11:56N 25°44' W 035°27'0 0.0 25.5
2014-Jul-19 11:10N 25°44' W 035°27'110.8 25.4
2014-Jul-19 11:07N 25°44' W 035°27'126.8 25.4
2014-Jul-19 11:04N 25°46' W 035°27'0 0.0 25.4
2014-Jul-19 10:09N 25°46' W 035°27'0 0.1 25.4
2014-Jul-19 08:37N 25°46' W 035°27'0 5.5 25.3
2014-Jul-19 08:34N 25°46' W 035°27'0 0.0 25.3
2014-Jul-19 08:26N 25°46' W 035°27'1 0.9 25.3
2014-Jul-19 06:56N 25°47' W 035°28'138.7 25.4
2014-Jul-19 06:54N 25°46' W 035°27'1 6.4 25.4
2014-Jul-19 06:42N 25°47' W 035°28'0 0.0 25.4
2014-Jul-19 06:10N 25°47' W 035°28'1 9.3 25.4
2014-Jul-19 06:03N 25°47' W 035°29'0 0.0 25.4
2014-Jul-19 04:27N 25°47' W 035°29'1 0.4 25.5
2014-Jul-19 02:44N 25°47' W 035°29'0 0.0 25.5
2014-Jul-19 00:26N 25°47' W 035°29'1 1.7 25.8
2014-Jul-18 23:40N 25°49' W 035°30'0 0.0 25.9
2014-Jul-18 23:37N 25°49' W 035°30'0 0.0 25.9
2014-Jul-18 23:34N 25°49' W 035°30'0 0.0 25.9
2014-Jul-18 22:48N 25°49' W 035°30'0 0.0 26.0
2014-Jul-18 22:42N 25°49' W 035°30'128.3 26.0
2014-Jul-18 22:39N 25°48' W 035°31'0 0.2 26.0
2014-Jul-18 20:08N 25°48' W 035°31'0 0.0 26.7
2014-Jul-18 20:05N 25°48' W 035°31'0 0.0 26.7
2014-Jul-18 19:36N 25°48' W 035°31'0 0.1 26.8
2014-Jul-18 18:33N 25°48' W 035°32'0 0.5 27.0
2014-Jul-18 18:26N 25°48' W 035°31'0 0.5 27.1
2014-Jul-18 17:40N 25°48' W 035°32'0 0.5 27.3
2014-Jul-18 16:51N 25°48' W 035°32'0 0.0 27.4
2014-Jul-18 15:57N 25°48' W 035°32'0 0.0 27.2
2014-Jul-18 14:19N 25°48' W 035°32'0 0.1 26.8
2014-Jul-18 12:22N 25°48' W 035°32'0 0.1 26.4
2014-Jul-18 11:27N 25°48' W 035°32'0 7.9
2014-Jul-18 11:26N 25°48' W 035°32'0 0.6 26.0
2014-Jul-18 10:41N 25°48' W 035°32'0 0.0 25.7
2014-Jul-18 09:06N 25°48' W 035°32'0 1.3 25.5
2014-Jul-18 08:55N 25°48' W 035°32'0 1.7 25.5
2014-Jul-18 08:49N 25°49' W 035°32'0 0.3 25.5
2014-Jul-18 07:26N 25°49' W 035°32'1 1.9 25.5
2014-Jul-18 07:10N 25°49' W 035°31'1 7.1 25.5
2014-Jul-18 07:05N 25°49' W 035°32'0 0.0 25.5
2014-Jul-18 06:20N 25°49' W 035°32'1 0.7 25.5
2014-Jul-18 05:30N 25°50' W 035°32'0 2.2 25.5
2014-Jul-18 05:24N 25°50' W 035°32'0 0.0 25.5
2014-Jul-18 04:36N 25°50' W 035°32'0 0.0 25.5
2014-Jul-18 04:32N 25°50' W 035°32'1 0.7 25.5
2014-Jul-18 02:52N 25°50' W 035°33'0 0.0 25.5
2014-Jul-18 00:48N 25°50' W 035°33'1 0.9 26.0
2014-Jul-17 23:57N 25°51' W 035°33'0 7.5
2014-Jul-17 23:54N 25°51' W 035°34'0 0.0 26.1
2014-Jul-17 23:08N 25°51' W 035°34'0 4.8 26.1
2014-Jul-17 23:03N 25°51' W 035°34'0 6.8 26.1
2014-Jul-17 22:59N 25°52' W 035°34'0 0.0 26.1
2014-Jul-17 22:21N 25°52' W 035°34'0 0.0 26.2
2014-Jul-17 22:11N 25°52' W 035°34'0 1.7
2014-Jul-17 21:56N 25°52' W 035°35'1 0.5 26.4
2014-Jul-17 20:09N 25°52' W 035°36'0 0.1 27.6
2014-Jul-17 18:54N 25°52' W 035°36'1 4.1 27.9
2014-Jul-17 18:44N 25°51' W 035°36'113.7 27.9
2014-Jul-17 18:41N 25°52' W 035°36'1 0.9 27.6
2014-Jul-17 17:49N 25°51' W 035°36'0 0.0 27.3
2014-Jul-17 17:03N 25°51' W 035°36'1 0.6 27.5
2014-Jul-17 16:11N 25°51' W 035°36'1 0.5 27.6
2014-Jul-17 14:30N 25°51' W 035°37'0 0.0 27.4
2014-Jul-17 14:27N 25°51' W 035°37'0 0.2 27.2
2014-Jul-17 12:49N 25°51' W 035°36'0 0.4 26.5
2014-Jul-17 12:41N 25°51' W 035°36'0 0.2 26.4
2014-Jul-17 11:49N 25°51' W 035°36'0 5.4 25.9
2014-Jul-17 11:44N 25°51' W 035°36'0 0.0 25.9
2014-Jul-17 11:04N 25°51' W 035°36'0 4.1 25.5
2014-Jul-17 11:00N 25°51' W 035°36'0 0.2 25.5
2014-Jul-17 09:19N 25°51' W 035°36'0 0.3 25.1
2014-Jul-17 07:56N 25°52' W 035°36'0 0.4 25.1
2014-Jul-17 07:33N 25°52' W 035°36'0 0.0 25.1
2014-Jul-17 07:22N 25°52' W 035°36'0 2.9 25.1
2014-Jul-17 07:17N 25°52' W 035°36'0 5.6 25.1
2014-Jul-17 07:14N 25°52' W 035°36'0 0.0 25.1
2014-Jul-17 06:28N 25°52' W 035°36'0 0.0 25.1
2014-Jul-17 06:15N 25°52' W 035°36'0 0.0 25.1
2014-Jul-17 05:56N 25°52' W 035°36'0 1.7 25.1
2014-Jul-17 05:39N 25°52' W 035°36'1 8.1 25.2
2014-Jul-17 05:35N 25°52' W 035°36'0 0.0 25.2
2014-Jul-17 04:49N 25°52' W 035°36'217.7 25.2
2014-Jul-17 04:43N 25°54' W 035°37'0 0.0 25.2
2014-Jul-17 03:11N 25°54' W 035°37'0 0.0 25.2
2014-Jul-17 03:07N 25°54' W 035°37'0 0.1 25.2
2014-Jul-17 01:05N 25°53' W 035°37'0 0.2 25.4
2014-Jul-17 00:20N 25°53' W 035°37'0 0.0 25.5
2014-Jul-16 23:27N 25°53' W 035°37'0 0.0 25.5
2014-Jul-16 23:25N 25°53' W 035°37'010.4 25.7
2014-Jul-16 23:24N 25°53' W 035°37'0 0.3 25.7
2014-Jul-16 22:39N 25°54' W 035°37'0 2.0 25.8
2014-Jul-16 22:25N 25°54' W 035°38'1 1.3 25.9
2014-Jul-16 21:47N 25°55' W 035°38'0 0.0 25.9
2014-Jul-16 21:44N 25°55' W 035°38'0 0.0 25.9
2014-Jul-16 20:56N 25°55' W 035°38'0 0.0 26.0
2014-Jul-16 20:49N 25°55' W 035°38'1 2.7 26.0
2014-Jul-16 20:38N 25°54' W 035°38'0 0.0 26.0
2014-Jul-16 19:18N 25°54' W 035°38'0 1.1 26.5
2014-Jul-16 19:01N 25°55' W 035°38'0 0.0 26.6
2014-Jul-16 18:55N 25°55' W 035°38'113.0 26.7
2014-Jul-16 18:51N 25°55' W 035°39'0 0.0 26.7
2014-Jul-16 17:57N 25°55' W 035°39'0 0.0 26.7
2014-Jul-16 17:37N 25°55' W 035°39'0 0.4 26.8
2014-Jul-16 17:14N 25°55' W 035°39'0 7.2 26.7
2014-Jul-16 17:11N 25°54' W 035°39'0 0.5 26.6
2014-Jul-16 16:23N 25°55' W 035°39'0 0.0 26.5
2014-Jul-16 16:20N 25°55' W 035°39'1 0.6 26.5
2014-Jul-16 14:41N 25°54' W 035°40'0 0.0 25.9
2014-Jul-16 13:52N 25°54' W 035°40'0 0.0 25.7
2014-Jul-16 13:07N 25°54' W 035°40'0 3.6 25.5
2014-Jul-16 13:00N 25°54' W 035°40'0 0.0 25.5
2014-Jul-16 12:09N 25°54' W 035°40'0 0.2 25.2
2014-Jul-16 11:23N 25°54' W 035°40'112.9 25.1
2014-Jul-16 11:20N 25°54' W 035°39'0 0.0 25.1
2014-Jul-16 10:29N 25°54' W 035°39'0 0.0 25.0
2014-Jul-16 10:05N 25°54' W 035°39'0 0.0 25.0
2014-Jul-16 09:42N 25°54' W 035°39'0 0.1 25.0
2014-Jul-16 07:59N 25°54' W 035°40'0 0.0 25.0
2014-Jul-16 07:27N 25°54' W 035°40'012.6 25.0
2014-Jul-16 07:25N 25°55' W 035°39'0 0.0 25.0
2014-Jul-16 06:48N 25°55' W 035°39'0 0.9 25.0
2014-Jul-16 06:39N 25°55' W 035°39'0 0.4 25.0
2014-Jul-16 06:21N 25°55' W 035°39'0 0.0 25.0
2014-Jul-16 05:55N 25°55' W 035°39'0 1.6 25.0
2014-Jul-16 05:52N 25°55' W 035°39'0 9.4 25.0
2014-Jul-16 05:49N 25°55' W 035°39'0 0.0 25.0
2014-Jul-16 05:46N 25°55' W 035°39'0 0.0 25.0
2014-Jul-16 05:04N 25°55' W 035°39'0 0.0 25.0
2014-Jul-16 04:57N 25°55' W 035°39'0 0.2 25.0
2014-Jul-16 03:23N 25°55' W 035°39'1 6.2 25.1
2014-Jul-16 03:11N 25°56' W 035°39'1 0.6 25.1
2014-Jul-16 01:25N 25°56' W 035°40'0 0.0 25.1
2014-Jul-16 00:40N 25°56' W 035°40'0 0.0 25.1
2014-Jul-15 23:50N 25°56' W 035°40'1 0.9 25.1
2014-Jul-15 23:02N 25°56' W 035°40'1 0.7 25.1
2014-Jul-15 22:09N 25°57' W 035°40'0 0.0 25.1
2014-Jul-15 22:06N 25°57' W 035°40'0 0.0 25.1
2014-Jul-15 22:03N 25°57' W 035°40'1 0.5 25.1
2014-Jul-15 19:41N 25°57' W 035°41'0 0.0
2014-Jul-15 19:08N 25°57' W 035°41'0 0.0 25.4
2014-Jul-15 18:02N 25°57' W 035°41'1 1.0 25.4
2014-Jul-15 17:27N 25°57' W 035°40'1 0.8 25.4
2014-Jul-15 16:34N 25°57' W 035°41'1 0.4 25.7
2014-Jul-15 14:52N 25°58' W 035°41'0 0.0 25.5
2014-Jul-15 13:27N 25°58' W 035°41'0 0.4 25.3
2014-Jul-15 12:26N 25°57' W 035°41'013.1 25.2
2014-Jul-15 12:24N 25°57' W 035°42'0 0.0 25.1
2014-Jul-15 11:46N 25°57' W 035°42'1 7.5 25.1
2014-Jul-15 11:38N 25°56' W 035°41'0 0.0 25.1
2014-Jul-15 10:48N 25°56' W 035°41'0 0.0 25.0
2014-Jul-15 08:56N 25°56' W 035°41'1 1.2 24.9
2014-Jul-15 08:25N 25°57' W 035°41'1 1.1 24.9
2014-Jul-15 07:42N 25°56' W 035°42'1 2.2 24.9
2014-Jul-15 07:21N 25°57' W 035°41'1 1.5 24.9
2014-Jul-15 06:46N 25°57' W 035°41'1 6.4 25.0
2014-Jul-15 06:41N 25°57' W 035°41'0 0.0 25.0
2014-Jul-15 06:06N 25°57' W 035°41'115.4 25.0
2014-Jul-15 06:03N 25°57' W 035°42'1 7.4 25.0
2014-Jul-15 05:57N 25°57' W 035°41'0 0.0
2014-Jul-15 05:11N 25°57' W 035°41'0 0.4 25.1
2014-Jul-15 05:03N 25°57' W 035°41'0 0.0 25.1
2014-Jul-15 03:32N 25°57' W 035°41'1 4.7 25.1
2014-Jul-15 03:25N 25°58' W 035°41'0 0.0 25.1
2014-Jul-15 00:56N 25°58' W 035°41'0 0.0 25.1
2014-Jul-15 00:10N 25°58' W 035°41'0 0.2 25.2
2014-Jul-14 23:22N 25°58' W 035°41'116.4 25.2
2014-Jul-14 23:18N 25°59' W 035°41'0 0.0 25.2
2014-Jul-14 22:30N 25°59' W 035°41'0 0.0 25.2
2014-Jul-14 22:26N 25°59' W 035°41'115.7 25.2
2014-Jul-14 22:23N 25°58' W 035°41'0 0.0 25.2
2014-Jul-14 21:50N 25°58' W 035°41'0 0.2 25.2
2014-Jul-14 20:08N 25°58' W 035°41'0 0.0 25.4
2014-Jul-14 20:03N 25°58' W 035°41'0 0.0 25.4
2014-Jul-14 19:19N 25°58' W 035°41'1 0.7 25.4
2014-Jul-14 18:28N 25°59' W 035°41'0 0.4 25.4
2014-Jul-14 17:37N 25°59' W 035°42'0 0.0 25.7
2014-Jul-14 16:45N 25°59' W 035°42'0 0.0 25.9
2014-Jul-14 16:41N 25°59' W 035°42'1 0.6 25.8
2014-Jul-14 15:04N 25°60' W 035°42'0 0.0 25.5
2014-Jul-14 13:47N 25°60' W 035°42'1 6.1 25.2
2014-Jul-14 13:40N 25°60' W 035°41'0 0.2 25.2
2014-Jul-14 12:55N 25°60' W 035°41'0 2.6 25.1
2014-Jul-14 12:51N 25°60' W 035°41'1 7.8 25.1
2014-Jul-14 12:45N 25°59' W 035°42'0 0.2 25.1
2014-Jul-14 12:00N 25°60' W 035°42'0 0.0 25.0
2014-Jul-14 11:11N 25°60' W 035°42'112.1 24.9
2014-Jul-14 11:08N 25°59' W 035°42'0 0.0 24.9
2014-Jul-14 10:20N 25°59' W 035°42'0 0.2
2014-Jul-14 08:48N 25°60' W 035°42'0 0.3 24.8
2014-Jul-14 07:53N 25°59' W 035°42'0 0.0 24.8
2014-Jul-14 07:52N 25°59' W 035°42'0 9.3 24.8
2014-Jul-14 07:49N 25°60' W 035°43'0 0.0 24.8
2014-Jul-14 07:10N 25°60' W 035°43'0 7.4 24.8
2014-Jul-14 07:09N 25°60' W 035°43'0 0.3 24.8
2014-Jul-14 06:18N 25°59' W 035°43'0 1.7 24.8
2014-Jul-14 06:11N 25°59' W 035°43'0 2.4 24.8
2014-Jul-14 06:07N 25°59' W 035°43'0 0.0 24.8
2014-Jul-14 05:21N 25°59' W 035°43'0 0.3 24.8
2014-Jul-14 03:45N 25°59' W 035°42'0 2.5 24.8
2014-Jul-14 03:42N 25°59' W 035°42'0 4.2 24.8
2014-Jul-14 03:36N 25°60' W 035°43'0 0.0 24.8
2014-Jul-14 00:32N 25°59' W 035°42'0 0.4 25.0
2014-Jul-13 23:43N 25°60' W 035°42'0 3.3 25.0
2014-Jul-13 23:38N 25°60' W 035°43'0 2.2 25.0
2014-Jul-13 23:35N 25°60' W 035°43'0 0.0 25.0
2014-Jul-13 22:50N 25°60' W 035°43'0 0.0 25.1
2014-Jul-13 22:47N 25°60' W 035°43'015.8 25.1
2014-Jul-13 22:46N 26°00' W 035°43'0 0.0 25.1
2014-Jul-13 22:20N 26°00' W 035°43'1 0.5 25.1
2014-Jul-13 20:31N 25°60' W 035°42'0 0.0 25.2
2014-Jul-13 19:30N 25°60' W 035°42'0 0.7 25.3
2014-Jul-13 18:53N 25°60' W 035°42'0 0.0 25.3
2014-Jul-13 18:45N 25°60' W 035°42'   25.3
Track history (hours):
 
Tides and Currents Weather Stations Pressure Air Temp Water Temp Dewpoint Dewpoint Depression Visibility Wind Speed Wind Dir Waves Ship Positions

Drifting buoy 13526

Last reported at 2014-Jul-23 18:05 UTC. Time now 2014-Jul-23 19:45 UTC.
Position N 25°31' W 035°13'.

Water temperature 26.0 ° C

Date/timePositionNaut miles runAvg speedWind from/ knotsBaromVisibWave heightAir tempDewpointWater temp
2014-Jul-23 18:05N 25°31' W 035°13'0 0.7 26.0
2014-Jul-23 17:36N 25°31' W 035°12'0 0.1 26.1
2014-Jul-23 16:47N 25°31' W 035°12'0 1.0 26.0
2014-Jul-23 16:42N 25°31' W 035°12'1 0.6 26.0
2014-Jul-23 15:05N 25°31' W 035°13'1 0.3 26.0
2014-Jul-23 13:10N 25°32' W 035°14'0 2.3 25.9
2014-Jul-23 13:00N 25°32' W 035°14'0 0.1 25.9
2014-Jul-23 12:24N 25°32' W 035°14'1 5.4 25.8
2014-Jul-23 12:18N 25°32' W 035°15'0 0.0 25.8
2014-Jul-23 12:15N 25°32' W 035°15'0 0.0 25.8
2014-Jul-23 11:25N 25°32' W 035°15'111.1 25.8
2014-Jul-23 11:22N 25°32' W 035°15'1 0.8 25.8
2014-Jul-23 10:36N 25°32' W 035°15'0 0.0 25.7
2014-Jul-23 09:46N 25°32' W 035°15'1 0.6 25.7
2014-Jul-23 08:24N 25°32' W 035°16'1 2.2 25.7
2014-Jul-23 08:10N 25°32' W 035°15'0 0.2 25.7
2014-Jul-23 07:51N 25°32' W 035°15'0 0.4 25.7
2014-Jul-23 06:50N 25°32' W 035°15'0 1.2 25.8
2014-Jul-23 06:42N 25°32' W 035°15'0 0.0 25.8
2014-Jul-23 06:26N 25°32' W 035°15'0 0.0 25.8
2014-Jul-23 06:16N 25°32' W 035°15'0 0.5 25.8
2014-Jul-23 06:10N 25°32' W 035°16'0 4.5 25.8
2014-Jul-23 06:07N 25°32' W 035°16'0 0.0 25.8
2014-Jul-23 05:23N 25°32' W 035°16'0 0.2 25.8
2014-Jul-23 03:42N 25°32' W 035°16'1 7.8 25.8
2014-Jul-23 03:37N 25°32' W 035°15'0 0.1 25.8
2014-Jul-23 00:45N 25°31' W 035°15'1 1.0 25.8
2014-Jul-22 23:56N 25°32' W 035°16'0 0.0 25.9
2014-Jul-22 23:55N 25°32' W 035°16'1 1.7 25.9
2014-Jul-22 23:06N 25°32' W 035°15'0 1.6 25.9
2014-Jul-22 22:59N 25°31' W 035°15'123.8 25.9
2014-Jul-22 22:56N 25°32' W 035°15'0 0.6 25.9
2014-Jul-22 22:09N 25°32' W 035°15'0 0.1
2014-Jul-22 20:57N 25°32' W 035°16'1 0.5 26.0
2014-Jul-22 19:28N 25°33' W 035°16'0 0.0 26.1
2014-Jul-22 19:11N 25°33' W 035°16'0 0.0
2014-Jul-22 18:30N 25°33' W 035°16'0 0.0 26.2
2014-Jul-22 18:26N 25°33' W 035°16'0 0.2 26.2
2014-Jul-22 17:48N 25°33' W 035°16'0 0.2 26.2
2014-Jul-22 16:56N 25°33' W 035°15'1 0.5 26.2
2014-Jul-22 15:10N 25°33' W 035°16'1 0.3 26.2
2014-Jul-22 12:45N 25°34' W 035°16'1 5.4 25.9
2014-Jul-22 12:37N 25°34' W 035°17'0 0.0 25.9
2014-Jul-22 11:48N 25°34' W 035°17'0 0.0 25.8
2014-Jul-22 11:40N 25°34' W 035°17'0 0.4 25.8
2014-Jul-22 11:02N 25°35' W 035°17'0 0.0 25.8
2014-Jul-22 08:53N 25°35' W 035°17'1 1.3 25.8
2014-Jul-22 08:04N 25°35' W 035°16'220.2 25.8
2014-Jul-22 07:59N 25°35' W 035°18'1 0.7 25.8
2014-Jul-22 07:10N 25°35' W 035°18'1 3.3 25.7
2014-Jul-22 06:56N 25°36' W 035°18'1 1.8 25.8
2014-Jul-22 06:27N 25°35' W 035°18'0 0.0 25.8
2014-Jul-22 06:24N 25°35' W 035°18'0 2.4 25.8
2014-Jul-22 06:18N 25°35' W 035°18'0 0.2 25.8
2014-Jul-22 05:32N 25°35' W 035°18'0 0.2 25.8
2014-Jul-22 03:57N 25°35' W 035°18'0 0.0 25.9
2014-Jul-22 03:54N 25°35' W 035°18'111.7 25.9
2014-Jul-22 03:49N 25°34' W 035°19'0 0.0 25.9
2014-Jul-22 01:04N 25°34' W 035°19'116.3 26.0
2014-Jul-22 01:01N 25°35' W 035°18'0 0.4 26.0
2014-Jul-22 00:18N 25°35' W 035°18'0 0.1 26.0
2014-Jul-21 23:26N 25°35' W 035°18'0 1.7 26.0
2014-Jul-21 23:20N 25°35' W 035°18'0 0.3 26.0
2014-Jul-21 22:38N 25°35' W 035°19'0 2.8 26.0
2014-Jul-21 22:32N 25°35' W 035°18'0 0.0 26.0
2014-Jul-21 22:29N 25°35' W 035°18'0 0.0 26.0
2014-Jul-21 21:40N 25°35' W 035°18'0 0.0 26.1
2014-Jul-21 21:26N 25°35' W 035°18'1 0.8 26.1
2014-Jul-21 20:34N 25°36' W 035°18'0 0.5 26.2
2014-Jul-21 19:53N 25°36' W 035°19'0 1.1 26.4
2014-Jul-21 19:39N 25°36' W 035°19'0 0.0 26.3
2014-Jul-21 18:54N 25°36' W 035°19'0 0.5 26.4
2014-Jul-21 17:59N 25°36' W 035°19'0 2.5 26.6
2014-Jul-21 17:56N 25°36' W 035°19'0 0.6 26.6
2014-Jul-21 17:07N 25°36' W 035°19'0 0.0 26.5
2014-Jul-21 16:12N 25°36' W 035°19'0 0.1
2014-Jul-21 15:26N 25°36' W 035°19'1 0.3 26.2
2014-Jul-21 13:48N 25°37' W 035°19'0 0.0 25.9
2014-Jul-21 13:05N 25°37' W 035°19'0 2.1 25.8
2014-Jul-21 12:57N 25°37' W 035°19'0 0.4 25.7
2014-Jul-21 12:11N 25°37' W 035°20'0 6.6 25.7
2014-Jul-21 12:08N 25°37' W 035°19'0 4.2
2014-Jul-21 12:02N 25°38' W 035°19'0 0.0 25.7
2014-Jul-21 11:22N 25°38' W 035°19'1 6.4 25.7
2014-Jul-21 11:16N 25°38' W 035°19'0 0.4 25.7
2014-Jul-21 10:27N 25°38' W 035°20'0 0.0 25.6
2014-Jul-21 10:24N 25°38' W 035°20'1 0.7 25.6
2014-Jul-21 09:16N 25°38' W 035°20'1 8.1 25.5
2014-Jul-21 09:10N 25°38' W 035°20'0 0.4 25.5
2014-Jul-21 08:10N 25°38' W 035°20'0 0.0 25.5
2014-Jul-21 07:38N 25°38' W 035°20'114.1 25.5
2014-Jul-21 07:35N 25°38' W 035°21'0 9.7 25.5
2014-Jul-21 07:32N 25°38' W 035°20'0 0.5 25.5
2014-Jul-21 06:35N 25°38' W 035°21'114.0 25.5
2014-Jul-21 06:29N 25°40' W 035°21'0 0.0 25.5
2014-Jul-21 05:57N 25°40' W 035°21'1 4.3 25.6
2014-Jul-21 05:42N 25°39' W 035°20'0 0.0 25.6
2014-Jul-21 05:38N 25°39' W 035°20'0 0.0 25.6
2014-Jul-21 04:08N 25°39' W 035°20'110.0 25.7
2014-Jul-21 04:03N 25°39' W 035°21'0 0.0 25.7
2014-Jul-21 04:00N 25°39' W 035°21'0 0.0 25.7
2014-Jul-21 01:24N 25°39' W 035°21'0 0.0 25.7
2014-Jul-21 01:21N 25°39' W 035°21'1 0.9 25.7
2014-Jul-21 00:36N 25°39' W 035°22'1 0.4 25.7
2014-Jul-20 22:57N 25°39' W 035°22'0 1.2 25.8
2014-Jul-20 22:54N 25°39' W 035°22'1 0.6 25.8
2014-Jul-20 21:57N 25°40' W 035°22'1 1.0 25.9
2014-Jul-20 20:57N 25°39' W 035°23'0 0.0 26.0
2014-Jul-20 20:14N 25°39' W 035°23'1 1.7 26.0
2014-Jul-20 19:48N 25°40' W 035°23'0 0.0 26.0
2014-Jul-20 19:21N 25°40' W 035°23'0 0.0 26.2
2014-Jul-20 19:11N 25°40' W 035°23'0 0.0
2014-Jul-20 18:10N 25°40' W 035°23'1 1.1 26.3
2014-Jul-20 17:35N 25°40' W 035°22'0 0.9 26.3
2014-Jul-20 17:18N 25°40' W 035°23'0 5.4 26.4
2014-Jul-20 17:15N 25°40' W 035°23'0 0.0 26.4
2014-Jul-20 16:27N 25°40' W 035°23'0 0.1 26.3
2014-Jul-20 15:38N 25°40' W 035°23'0 0.3 26.1
2014-Jul-20 14:08N 25°40' W 035°23'0 0.1 25.8
2014-Jul-20 13:20N 25°40' W 035°23'1 0.9 25.8
2014-Jul-20 12:27N 25°40' W 035°23'0 4.5 25.8
2014-Jul-20 12:22N 25°41' W 035°23'0 0.1 25.8
2014-Jul-20 11:42N 25°40' W 035°23'1 6.9 25.7
2014-Jul-20 11:36N 25°41' W 035°23'0 0.6 25.7
2014-Jul-20 10:48N 25°41' W 035°24'1 5.1 25.7
2014-Jul-20 10:41N 25°41' W 035°23'0 0.2
2014-Jul-20 09:42N 25°41' W 035°23'012.6 25.7
2014-Jul-20 09:41N 25°41' W 035°23'0 6.3 25.7
2014-Jul-20 09:39N 25°41' W 035°23'1 0.7 25.7
2014-Jul-20 08:27N 25°42' W 035°23'0 0.0 25.7
2014-Jul-20 08:01N 25°42' W 035°23'110.9 25.7
2014-Jul-20 07:57N 25°41' W 035°23'1 0.7 25.7
2014-Jul-20 06:48N 25°42' W 035°23'0 2.2 25.7
2014-Jul-20 06:40N 25°42' W 035°23'0 0.0 25.7
2014-Jul-20 06:22N 25°42' W 035°23'1 1.2 25.7
2014-Jul-20 05:52N 25°42' W 035°24'0 0.0 25.7
2014-Jul-20 05:49N 25°42' W 035°24'2 1.0 25.7
2014-Jul-20 04:10N 25°43' W 035°25'0 0.0 25.8
2014-Jul-20 04:08N 25°43' W 035°25'0 0.1 25.8
2014-Jul-20 00:57N 25°44' W 035°25'0 0.0
2014-Jul-20 00:55N 25°44' W 035°25'0 0.1 25.8
2014-Jul-20 00:07N 25°44' W 035°25'0 0.4 25.9
2014-Jul-19 23:20N 25°44' W 035°25'0 1.6 25.9
2014-Jul-19 23:11N 25°44' W 035°25'0 0.0
2014-Jul-19 23:09N 25°44' W 035°25'0 0.0 26.0
2014-Jul-19 22:29N 25°44' W 035°25'110.5 26.0
2014-Jul-19 22:23N 25°44' W 035°27'0 0.0 26.0
2014-Jul-19 22:17N 25°44' W 035°27'0 0.1 26.0
2014-Jul-19 20:01N 25°44' W 035°26'1 3.4 26.2
2014-Jul-19 19:45N 25°44' W 035°27'1 1.9 26.3
2014-Jul-19 19:10N 25°43' W 035°27'122.0 26.1
2014-Jul-19 19:07N 25°44' W 035°27'0 0.0 26.1
2014-Jul-19 18:22N 25°44' W 035°27'1 2.2 26.2
2014-Jul-19 18:01N 25°43' W 035°27'0 0.9 26.3
2014-Jul-19 17:29N 25°44' W 035°27'0 1.2 26.7
2014-Jul-19 17:26N 25°44' W 035°27'0 0.4 26.7
2014-Jul-19 16:38N 25°44' W 035°27'0 0.2 26.5
2014-Jul-19 15:51N 25°44' W 035°27'0 0.1 26.2
2014-Jul-19 13:42N 25°44' W 035°27'0 0.0
2014-Jul-19 12:47N 25°44' W 035°27'1 7.3 25.7
2014-Jul-19 12:42N 25°44' W 035°27'0 0.0
2014-Jul-19 12:07N 25°44' W 035°27'0 1.2 25.5
2014-Jul-19 12:04N 25°44' W 035°27'0 7.4 25.5
2014-Jul-19 12:01N 25°44' W 035°28'0 5.3 25.5
2014-Jul-19 11:56N 25°44' W 035°27'0 0.0 25.5
2014-Jul-19 11:10N 25°44' W 035°27'110.8 25.4
2014-Jul-19 11:07N 25°44' W 035°27'126.8 25.4
2014-Jul-19 11:04N 25°46' W 035°27'0 0.0 25.4
2014-Jul-19 10:09N 25°46' W 035°27'0 0.1 25.4
2014-Jul-19 08:37N 25°46' W 035°27'0 5.5 25.3
2014-Jul-19 08:34N 25°46' W 035°27'0 0.0 25.3
2014-Jul-19 08:26N 25°46' W 035°27'1 0.9 25.3
2014-Jul-19 06:56N 25°47' W 035°28'138.7 25.4
2014-Jul-19 06:54N 25°46' W 035°27'1 6.4 25.4
2014-Jul-19 06:42N 25°47' W 035°28'0 0.0 25.4
2014-Jul-19 06:10N 25°47' W 035°28'1 9.3 25.4
2014-Jul-19 06:03N 25°47' W 035°29'0 0.0 25.4
2014-Jul-19 04:27N 25°47' W 035°29'1 0.4 25.5
2014-Jul-19 02:44N 25°47' W 035°29'0 0.0 25.5
2014-Jul-19 00:26N 25°47' W 035°29'1 1.7 25.8
2014-Jul-18 23:40N 25°49' W 035°30'0 0.0 25.9
2014-Jul-18 23:37N 25°49' W 035°30'0 0.0 25.9
2014-Jul-18 23:34N 25°49' W 035°30'0 0.0 25.9
2014-Jul-18 22:48N 25°49' W 035°30'0 0.0 26.0
2014-Jul-18 22:42N 25°49' W 035°30'128.3 26.0
2014-Jul-18 22:39N 25°48' W 035°31'0 0.2 26.0
2014-Jul-18 20:08N 25°48' W 035°31'0 0.0 26.7
2014-Jul-18 20:05N 25°48' W 035°31'0 0.0 26.7
2014-Jul-18 19:36N 25°48' W 035°31'0 0.1 26.8
2014-Jul-18 18:33N 25°48' W 035°32'0 0.5 27.0
2014-Jul-18 18:26N 25°48' W 035°31'0 0.5 27.1
2014-Jul-18 17:40N 25°48' W 035°32'0 0.5 27.3
2014-Jul-18 16:51N 25°48' W 035°32'0 0.0 27.4
2014-Jul-18 15:57N 25°48' W 035°32'0 0.0 27.2
2014-Jul-18 14:19N 25°48' W 035°32'0 0.1 26.8
2014-Jul-18 12:22N 25°48' W 035°32'0 0.1 26.4
2014-Jul-18 11:27N 25°48' W 035°32'0 7.9
2014-Jul-18 11:26N 25°48' W 035°32'0 0.6 26.0
2014-Jul-18 10:41N 25°48' W 035°32'0 0.0 25.7
2014-Jul-18 09:06N 25°48' W 035°32'0 1.3 25.5
2014-Jul-18 08:55N 25°48' W 035°32'0 1.7 25.5
2014-Jul-18 08:49N 25°49' W 035°32'0 0.3 25.5
2014-Jul-18 07:26N 25°49' W 035°32'1 1.9 25.5
2014-Jul-18 07:10N 25°49' W 035°31'1 7.1 25.5
2014-Jul-18 07:05N 25°49' W 035°32'0 0.0 25.5
2014-Jul-18 06:20N 25°49' W 035°32'1 0.7 25.5
2014-Jul-18 05:30N 25°50' W 035°32'0 2.2 25.5
2014-Jul-18 05:24N 25°50' W 035°32'0 0.0 25.5
2014-Jul-18 04:36N 25°50' W 035°32'0 0.0 25.5
2014-Jul-18 04:32N 25°50' W 035°32'1 0.7 25.5
2014-Jul-18 02:52N 25°50' W 035°33'0 0.0 25.5
2014-Jul-18 00:48N 25°50' W 035°33'1 0.9 26.0
2014-Jul-17 23:57N 25°51' W 035°33'0 7.5
2014-Jul-17 23:54N 25°51' W 035°34'0 0.0 26.1
2014-Jul-17 23:08N 25°51' W 035°34'0 4.8 26.1
2014-Jul-17 23:03N 25°51' W 035°34'0 6.8 26.1
2014-Jul-17 22:59N 25°52' W 035°34'0 0.0 26.1
2014-Jul-17 22:21N 25°52' W 035°34'0 0.0 26.2
2014-Jul-17 22:11N 25°52' W 035°34'0 1.7
2014-Jul-17 21:56N 25°52' W 035°35'1 0.5 26.4
2014-Jul-17 20:09N 25°52' W 035°36'0 0.1 27.6
2014-Jul-17 18:54N 25°52' W 035°36'1 4.1 27.9
2014-Jul-17 18:44N 25°51' W 035°36'113.7 27.9
2014-Jul-17 18:41N 25°52' W 035°36'1 0.9 27.6
2014-Jul-17 17:49N 25°51' W 035°36'0 0.0 27.3
2014-Jul-17 17:03N 25°51' W 035°36'1 0.6 27.5
2014-Jul-17 16:11N 25°51' W 035°36'1 0.5 27.6
2014-Jul-17 14:30N 25°51' W 035°37'0 0.0 27.4
2014-Jul-17 14:27N 25°51' W 035°37'0 0.2 27.2
2014-Jul-17 12:49N 25°51' W 035°36'0 0.4 26.5
2014-Jul-17 12:41N 25°51' W 035°36'0 0.2 26.4
2014-Jul-17 11:49N 25°51' W 035°36'0 5.4 25.9
2014-Jul-17 11:44N 25°51' W 035°36'0 0.0 25.9
2014-Jul-17 11:04N 25°51' W 035°36'0 4.1 25.5
2014-Jul-17 11:00N 25°51' W 035°36'0 0.2 25.5
2014-Jul-17 09:19N 25°51' W 035°36'0 0.3 25.1
2014-Jul-17 07:56N 25°52' W 035°36'0 0.4 25.1
2014-Jul-17 07:33N 25°52' W 035°36'0 0.0 25.1
2014-Jul-17 07:22N 25°52' W 035°36'0 2.9 25.1
2014-Jul-17 07:17N 25°52' W 035°36'0 5.6 25.1
2014-Jul-17 07:14N 25°52' W 035°36'0 0.0 25.1
2014-Jul-17 06:28N 25°52' W 035°36'0 0.0 25.1
2014-Jul-17 06:15N 25°52' W 035°36'0 0.0 25.1
2014-Jul-17 05:56N 25°52' W 035°36'0 1.7 25.1
2014-Jul-17 05:39N 25°52' W 035°36'1 8.1 25.2
2014-Jul-17 05:35N 25°52' W 035°36'0 0.0 25.2
2014-Jul-17 04:49N 25°52' W 035°36'217.7 25.2
2014-Jul-17 04:43N 25°54' W 035°37'0 0.0 25.2
2014-Jul-17 03:11N 25°54' W 035°37'0 0.0 25.2
2014-Jul-17 03:07N 25°54' W 035°37'0 0.1 25.2
2014-Jul-17 01:05N 25°53' W 035°37'0 0.2 25.4
2014-Jul-17 00:20N 25°53' W 035°37'0 0.0 25.5
2014-Jul-16 23:27N 25°53' W 035°37'0 0.0 25.5
2014-Jul-16 23:25N 25°53' W 035°37'010.4 25.7
2014-Jul-16 23:24N 25°53' W 035°37'0 0.3 25.7
2014-Jul-16 22:39N 25°54' W 035°37'0 2.0 25.8
2014-Jul-16 22:25N 25°54' W 035°38'1 1.3 25.9
2014-Jul-16 21:47N 25°55' W 035°38'0 0.0 25.9
2014-Jul-16 21:44N 25°55' W 035°38'0 0.0 25.9
2014-Jul-16 20:56N 25°55' W 035°38'0 0.0 26.0
2014-Jul-16 20:49N 25°55' W 035°38'1 2.7 26.0
2014-Jul-16 20:38N 25°54' W 035°38'0 0.0 26.0
2014-Jul-16 19:18N 25°54' W 035°38'0 1.1 26.5
2014-Jul-16 19:01N 25°55' W 035°38'0 0.0 26.6
2014-Jul-16 18:55N 25°55' W 035°38'113.0 26.7
2014-Jul-16 18:51N 25°55' W 035°39'0 0.0 26.7
2014-Jul-16 17:57N 25°55' W 035°39'0 0.0 26.7
2014-Jul-16 17:37N 25°55' W 035°39'0 0.4 26.8
2014-Jul-16 17:14N 25°55' W 035°39'0 7.2 26.7
2014-Jul-16 17:11N 25°54' W 035°39'0 0.5 26.6
2014-Jul-16 16:23N 25°55' W 035°39'0 0.0 26.5
2014-Jul-16 16:20N 25°55' W 035°39'1 0.6 26.5
2014-Jul-16 14:41N 25°54' W 035°40'0 0.0 25.9
2014-Jul-16 13:52N 25°54' W 035°40'0 0.0 25.7
2014-Jul-16 13:07N 25°54' W 035°40'0 3.6 25.5
2014-Jul-16 13:00N 25°54' W 035°40'0 0.0 25.5
2014-Jul-16 12:09N 25°54' W 035°40'0 0.2 25.2
2014-Jul-16 11:23N 25°54' W 035°40'112.9 25.1
2014-Jul-16 11:20N 25°54' W 035°39'0 0.0 25.1
2014-Jul-16 10:29N 25°54' W 035°39'0 0.0 25.0
2014-Jul-16 10:05N 25°54' W 035°39'0 0.0 25.0
2014-Jul-16 09:42N 25°54' W 035°39'0 0.1 25.0
2014-Jul-16 07:59N 25°54' W 035°40'0 0.0 25.0
2014-Jul-16 07:27N 25°54' W 035°40'012.6 25.0
2014-Jul-16 07:25N 25°55' W 035°39'0 0.0 25.0
2014-Jul-16 06:48N 25°55' W 035°39'0 0.9 25.0
2014-Jul-16 06:39N 25°55' W 035°39'0 0.4 25.0
2014-Jul-16 06:21N 25°55' W 035°39'0 0.0 25.0
2014-Jul-16 05:55N 25°55' W 035°39'0 1.6 25.0
2014-Jul-16 05:52N 25°55' W 035°39'0 9.4 25.0
2014-Jul-16 05:49N 25°55' W 035°39'0 0.0 25.0
2014-Jul-16 05:46N 25°55' W 035°39'0 0.0 25.0
2014-Jul-16 05:04N 25°55' W 035°39'0 0.0 25.0
2014-Jul-16 04:57N 25°55' W 035°39'0 0.2 25.0
2014-Jul-16 03:23N 25°55' W 035°39'1 6.2 25.1
2014-Jul-16 03:11N 25°56' W 035°39'1 0.6 25.1
2014-Jul-16 01:25N 25°56' W 035°40'0 0.0 25.1
2014-Jul-16 00:40N 25°56' W 035°40'0 0.0 25.1
2014-Jul-15 23:50N 25°56' W 035°40'1 0.9 25.1
2014-Jul-15 23:02N 25°56' W 035°40'1 0.7 25.1
2014-Jul-15 22:09N 25°57' W 035°40'0 0.0 25.1
2014-Jul-15 22:06N 25°57' W 035°40'0 0.0 25.1
2014-Jul-15 22:03N 25°57' W 035°40'1 0.5 25.1
2014-Jul-15 19:41N 25°57' W 035°41'0 0.0
2014-Jul-15 19:08N 25°57' W 035°41'0 0.0 25.4
2014-Jul-15 18:02N 25°57' W 035°41'1 1.0 25.4
2014-Jul-15 17:27N 25°57' W 035°40'1 0.8 25.4
2014-Jul-15 16:34N 25°57' W 035°41'1 0.4 25.7
2014-Jul-15 14:52N 25°58' W 035°41'0 0.0 25.5
2014-Jul-15 13:27N 25°58' W 035°41'0 0.4 25.3
2014-Jul-15 12:26N 25°57' W 035°41'013.1 25.2
2014-Jul-15 12:24N 25°57' W 035°42'0 0.0 25.1
2014-Jul-15 11:46N 25°57' W 035°42'1 7.5 25.1
2014-Jul-15 11:38N 25°56' W 035°41'0 0.0 25.1
2014-Jul-15 10:48N 25°56' W 035°41'0 0.0 25.0
2014-Jul-15 08:56N 25°56' W 035°41'1 1.2 24.9
2014-Jul-15 08:25N 25°57' W 035°41'1 1.1 24.9
2014-Jul-15 07:42N 25°56' W 035°42'1 2.2 24.9
2014-Jul-15 07:21N 25°57' W 035°41'1 1.5 24.9
2014-Jul-15 06:46N 25°57' W 035°41'1 6.4 25.0
2014-Jul-15 06:41N 25°57' W 035°41'0 0.0 25.0
2014-Jul-15 06:06N 25°57' W 035°41'115.4 25.0
2014-Jul-15 06:03N 25°57' W 035°42'1 7.4 25.0
2014-Jul-15 05:57N 25°57' W 035°41'0 0.0
2014-Jul-15 05:11N 25°57' W 035°41'0 0.4 25.1
2014-Jul-15 05:03N 25°57' W 035°41'0 0.0 25.1
2014-Jul-15 03:32N 25°57' W 035°41'1 4.7 25.1
2014-Jul-15 03:25N 25°58' W 035°41'0 0.0 25.1
2014-Jul-15 00:56N 25°58' W 035°41'0 0.0 25.1
2014-Jul-15 00:10N 25°58' W 035°41'0 0.2 25.2
2014-Jul-14 23:22N 25°58' W 035°41'116.4 25.2
2014-Jul-14 23:18N 25°59' W 035°41'0 0.0 25.2
2014-Jul-14 22:30N 25°59' W 035°41'0 0.0 25.2
2014-Jul-14 22:26N 25°59' W 035°41'115.7 25.2
2014-Jul-14 22:23N 25°58' W 035°41'0 0.0 25.2
2014-Jul-14 21:50N 25°58' W 035°41'0 0.2 25.2
2014-Jul-14 20:08N 25°58' W 035°41'0 0.0 25.4
2014-Jul-14 20:03N 25°58' W 035°41'0 0.0 25.4
2014-Jul-14 19:19N 25°58' W 035°41'1 0.7 25.4
2014-Jul-14 18:28N 25°59' W 035°41'0 0.4 25.4
2014-Jul-14 17:37N 25°59' W 035°42'0 0.0 25.7
2014-Jul-14 16:45N 25°59' W 035°42'0 0.0 25.9
2014-Jul-14 16:41N 25°59' W 035°42'1 0.6 25.8
2014-Jul-14 15:04N 25°60' W 035°42'0 0.0 25.5
2014-Jul-14 13:47N 25°60' W 035°42'1 6.1 25.2
2014-Jul-14 13:40N 25°60' W 035°41'0 0.2 25.2
2014-Jul-14 12:55N 25°60' W 035°41'0 2.6 25.1
2014-Jul-14 12:51N 25°60' W 035°41'1 7.8 25.1
2014-Jul-14 12:45N 25°59' W 035°42'0 0.2 25.1
2014-Jul-14 12:00N 25°60' W 035°42'0 0.0 25.0
2014-Jul-14 11:11N 25°60' W 035°42'112.1 24.9
2014-Jul-14 11:08N 25°59' W 035°42'0 0.0 24.9
2014-Jul-14 10:20N 25°59' W 035°42'0 0.2
2014-Jul-14 08:48N 25°60' W 035°42'0 0.3 24.8
2014-Jul-14 07:53N 25°59' W 035°42'0 0.0 24.8
2014-Jul-14 07:52N 25°59' W 035°42'0 9.3 24.8
2014-Jul-14 07:49N 25°60' W 035°43'0 0.0 24.8
2014-Jul-14 07:10N 25°60' W 035°43'0 7.4 24.8
2014-Jul-14 07:09N 25°60' W 035°43'0 0.3 24.8
2014-Jul-14 06:18N 25°59' W 035°43'0 1.7 24.8
2014-Jul-14 06:11N 25°59' W 035°43'0 2.4 24.8
2014-Jul-14 06:07N 25°59' W 035°43'0 0.0 24.8
2014-Jul-14 05:21N 25°59' W 035°43'0 0.3 24.8
2014-Jul-14 03:45N 25°59' W 035°42'0 2.5 24.8
2014-Jul-14 03:42N 25°59' W 035°42'0 4.2 24.8
2014-Jul-14 03:36N 25°60' W 035°43'0 0.0 24.8
2014-Jul-14 00:32N 25°59' W 035°42'0 0.4 25.0
2014-Jul-13 23:43N 25°60' W 035°42'0 3.3 25.0
2014-Jul-13 23:38N 25°60' W 035°43'0 2.2 25.0
2014-Jul-13 23:35N 25°60' W 035°43'0 0.0 25.0
2014-Jul-13 22:50N 25°60' W 035°43'0 0.0 25.1
2014-Jul-13 22:47N 25°60' W 035°43'015.8 25.1
2014-Jul-13 22:46N 26°00' W 035°43'0 0.0 25.1
2014-Jul-13 22:20N 26°00' W 035°43'1 0.5 25.1
2014-Jul-13 20:31N 25°60' W 035°42'0 0.0 25.2
2014-Jul-13 19:30N 25°60' W 035°42'0 0.7 25.3
2014-Jul-13 18:53N 25°60' W 035°42'0 0.0 25.3
2014-Jul-13 18:45N 25°60' W 035°42'   25.3

Dump ship's entire track history